createdAt,value
2023-02-06T00:01:15.845Z,58.08
2023-02-06T00:03:43.120Z,62.30
2023-02-06T00:06:10.183Z,63.65
2023-02-06T00:08:37.323Z,59.90
2023-02-06T00:11:07.592Z,53.63
2023-02-06T00:13:36.018Z,55.85
2023-02-06T00:16:03.696Z,53.70
2023-02-06T00:18:31.278Z,57.85
2023-02-06T00:20:58.358Z,62.35
2023-02-06T00:23:25.531Z,60.13
2023-02-06T00:25:52.662Z,63.45
2023-02-06T00:28:19.954Z,54.40
2023-02-06T00:30:48.355Z,61.78
2023-02-06T00:33:15.787Z,62.42
2023-02-06T00:35:42.984Z,59.47
2023-02-06T00:38:13.193Z,62.60
2023-02-06T00:40:40.430Z,58.00
2023-02-06T00:43:07.524Z,57.78
2023-02-06T00:45:34.876Z,62.42
2023-02-06T00:48:02.309Z,60.88
2023-02-06T00:50:30.003Z,63.08
2023-02-06T00:52:57.339Z,64.03
2023-02-06T00:55:24.578Z,61.17
2023-02-06T00:57:51.635Z,63.03
2023-02-06T01:00:19.319Z,60.13
2023-02-06T01:02:46.465Z,61.92
2023-02-06T01:05:14.346Z,63.65
2023-02-06T01:07:41.525Z,67.95
2023-02-06T01:10:11.420Z,61.10
2023-02-06T01:12:40.064Z,60.70
2023-02-06T01:15:10.173Z,62.53
2023-02-06T01:17:38.506Z,62.88
2023-02-06T01:20:10.079Z,60.47
2023-02-06T01:22:37.708Z,58.05
2023-02-06T01:25:06.481Z,64.85
2023-02-06T01:27:36.907Z,64.40
2023-02-06T01:30:06.961Z,62.03
2023-02-06T01:35:07.520Z,65.15
2023-02-06T01:37:35.792Z,67.15
2023-02-06T01:40:04.564Z,63.78
2023-02-06T01:42:35.816Z,66.88
2023-02-06T01:45:27.090Z,68.10
2023-02-06T01:48:06.325Z,64.07
2023-02-06T01:50:36.325Z,74.03
2023-02-06T01:53:06.309Z,65.43
2023-02-06T01:55:36.377Z,62.47
2023-02-06T01:58:05.034Z,65.03
2023-02-06T02:00:32.511Z,60.90
2023-02-06T02:02:59.812Z,63.90
2023-02-06T02:05:26.979Z,66.22
2023-02-06T02:08:02.285Z,71.10
2023-02-06T02:10:30.987Z,60.78
2023-02-06T02:12:58.824Z,70.82
2023-02-06T02:15:47.915Z,69.45
2023-02-06T02:18:35.648Z,67.18
2023-02-06T02:21:33.766Z,63.40
2023-02-06T02:24:03.668Z,69.05
2023-02-06T02:27:08.768Z,66.47
2023-02-06T02:29:51.104Z,62.00
2023-02-06T02:32:44.055Z,66.20
2023-02-06T02:35:31.681Z,65.90
2023-02-06T02:38:16.576Z,64.40
2023-02-06T02:40:57.698Z,67.97
2023-02-06T02:43:31.286Z,65.65
2023-02-06T02:46:29.337Z,65.13
2023-02-06T02:49:03.481Z,71.88
2023-02-06T02:51:31.094Z,64.68
2023-02-06T02:53:58.473Z,63.47
2023-02-06T02:56:29.067Z,68.45
2023-02-06T02:59:05.158Z,67.22
2023-02-06T03:01:37.465Z,72.95
2023-02-06T03:04:11.508Z,72.75
2023-02-06T03:06:56.997Z,62.88
2023-02-06T03:09:38.994Z,65.88
2023-02-06T03:12:20.456Z,58.80
2023-02-06T03:14:53.702Z,65.55
2023-02-06T03:17:36.480Z,65.75
2023-02-06T03:20:08.223Z,67.95
2023-02-06T03:22:37.301Z,68.78
2023-02-06T03:25:10.533Z,69.18
2023-02-06T03:27:40.992Z,64.72
2023-02-06T03:30:10.682Z,65.18
2023-02-06T03:32:42.991Z,64.30
2023-02-06T03:35:18.200Z,68.18
2023-02-06T03:37:46.682Z,71.30
2023-02-06T03:40:14.648Z,69.22
2023-02-06T03:42:52.954Z,70.03
2023-02-06T03:45:32.170Z,65.38
2023-02-06T03:48:04.600Z,63.47
2023-02-06T03:50:34.738Z,65.50
2023-02-06T03:53:04.843Z,63.47
2023-02-06T03:58:06.835Z,66.78
2023-02-06T04:00:35.172Z,66.55
2023-02-06T04:03:03.023Z,71.43
2023-02-06T04:05:30.238Z,61.92
2023-02-06T04:07:57.659Z,65.40
2023-02-06T04:10:26.337Z,69.85
2023-02-06T04:12:54.085Z,68.30
2023-02-06T04:15:21.723Z,64.35
2023-02-06T04:17:59.500Z,65.47
2023-02-06T04:20:27.782Z,64.70
2023-02-06T04:22:54.913Z,61.10
2023-02-06T04:25:22.209Z,67.78
2023-02-06T04:27:50.074Z,62.10
2023-02-06T04:30:18.524Z,60.50
2023-02-06T04:32:45.854Z,63.17
2023-02-06T04:35:13.057Z,60.65
2023-02-06T04:37:40.192Z,55.83
2023-02-06T04:40:07.781Z,64.15
2023-02-06T04:42:34.940Z,52.15
2023-02-06T04:45:02.100Z,58.63
2023-02-06T04:47:29.148Z,60.40
2023-02-06T04:49:56.180Z,60.22
2023-02-06T04:52:23.373Z,55.42
2023-02-06T04:54:50.506Z,50.75
2023-02-06T04:57:17.643Z,53.10
2023-02-06T04:59:44.776Z,50.63
2023-02-06T05:02:11.861Z,49.05
2023-02-06T05:04:39.406Z,55.80
2023-02-06T05:07:06.797Z,52.92
2023-02-06T05:09:34.009Z,51.95
2023-02-06T05:12:01.252Z,51.28
2023-02-06T05:14:28.440Z,50.03
2023-02-06T05:16:55.526Z,46.40
2023-02-06T05:19:22.750Z,57.88
2023-02-06T05:21:49.950Z,49.20
2023-02-06T05:24:17.122Z,52.88
2023-02-06T05:26:45.258Z,46.72
2023-02-06T05:29:12.382Z,49.97
2023-02-06T05:31:39.590Z,50.70
2023-02-06T05:34:06.677Z,51.83
2023-02-06T05:36:33.767Z,44.72
2023-02-06T05:39:00.876Z,46.40
2023-02-06T05:41:28.186Z,44.97
2023-02-06T05:43:55.222Z,46.05
2023-02-06T05:46:22.387Z,44.95
2023-02-06T05:48:49.494Z,47.83
2023-02-06T05:51:17.117Z,46.05
2023-02-06T05:53:44.339Z,45.00
2023-02-06T05:56:11.503Z,48.00
2023-02-06T05:58:38.573Z,44.38
2023-02-06T06:01:05.769Z,43.03
2023-02-06T06:03:33.571Z,47.22
2023-02-06T06:06:00.784Z,47.25
2023-02-06T06:08:28.076Z,50.88
2023-02-06T06:10:55.201Z,43.60
2023-02-06T06:13:22.429Z,48.20
2023-02-06T06:15:53.204Z,44.13
2023-02-06T06:18:21.681Z,47.13
2023-02-06T06:20:49.290Z,46.03
2023-02-06T06:23:16.923Z,47.30
2023-02-06T06:25:44.289Z,47.15
2023-02-06T06:28:11.255Z,47.72
2023-02-06T06:30:38.680Z,49.25
2023-02-06T06:33:06.045Z,50.17
2023-02-06T06:35:33.455Z,45.70
2023-02-06T06:38:00.629Z,47.97
2023-02-06T06:40:27.638Z,47.00
2023-02-06T06:42:54.783Z,47.97
2023-02-06T06:45:21.956Z,46.00
2023-02-06T06:47:49.098Z,48.22
2023-02-06T06:50:16.255Z,45.22
2023-02-06T06:52:43.276Z,47.47
2023-02-06T06:55:10.744Z,45.97
2023-02-06T06:57:37.969Z,44.08
2023-02-06T07:00:05.733Z,42.35
2023-02-06T07:02:32.903Z,43.20
2023-02-06T07:05:00.700Z,48.58
2023-02-06T07:07:28.160Z,45.03
2023-02-06T07:09:55.682Z,44.58
2023-02-06T07:12:23.267Z,44.85
2023-02-06T07:14:50.398Z,51.55
2023-02-06T07:17:17.515Z,47.58
2023-02-06T07:19:48.402Z,48.72
2023-02-06T07:22:16.010Z,42.13
2023-02-06T07:24:43.448Z,41.70
2023-02-06T07:27:11.071Z,48.35
2023-02-06T07:29:38.630Z,49.38
2023-02-06T07:32:06.716Z,47.22
2023-02-06T07:34:34.081Z,49.50
2023-02-06T07:37:01.290Z,52.42
2023-02-06T07:39:28.647Z,57.17
2023-02-06T07:41:56.017Z,51.28
2023-02-06T07:44:30.174Z,54.78
2023-02-06T07:46:57.558Z,47.78
2023-02-06T07:49:25.026Z,53.75
2023-02-06T07:51:52.422Z,48.45
2023-02-06T07:54:20.796Z,50.15
2023-02-06T07:56:48.082Z,54.80
2023-02-06T07:59:15.159Z,53.97
2023-02-06T08:01:42.316Z,61.00
2023-02-06T08:04:10.973Z,54.95
2023-02-06T08:06:41.094Z,52.85
2023-02-06T08:11:36.195Z,57.60
2023-02-06T08:14:03.260Z,55.08
2023-02-06T08:16:30.883Z,53.80
2023-02-06T08:18:58.018Z,67.90
2023-02-06T08:21:26.004Z,65.18
2023-02-06T08:24:00.739Z,76.75
2023-02-06T08:26:30.040Z,73.22
2023-02-06T08:29:00.740Z,68.70
2023-02-06T08:31:31.036Z,62.50
2023-02-06T08:33:58.274Z,59.40
2023-02-06T08:36:26.400Z,53.33
2023-02-06T08:38:53.870Z,59.65
2023-02-06T08:41:25.304Z,56.22
2023-02-06T08:43:54.989Z,49.17
2023-02-06T08:46:23.418Z,47.50
2023-02-06T08:48:56.619Z,51.15
2023-02-06T08:51:27.987Z,49.70
2023-02-06T08:54:04.438Z,45.03
2023-02-06T08:56:34.254Z,37.85
2023-02-06T08:59:01.835Z,43.55
2023-02-06T09:01:32.204Z,45.65
2023-02-06T09:04:02.029Z,49.67
2023-02-06T09:06:29.529Z,41.17
2023-02-06T09:08:57.749Z,52.67
2023-02-06T09:11:26.512Z,43.40
2023-02-06T09:13:56.725Z,49.67
2023-02-06T09:16:24.624Z,45.97
2023-02-06T09:18:54.208Z,47.95
2023-02-06T09:21:24.711Z,42.67
2023-02-06T09:23:54.960Z,40.47
2023-02-06T09:26:28.989Z,35.75
2023-02-06T09:28:58.247Z,26.52
2023-02-06T09:31:26.895Z,35.58
2023-02-06T09:33:54.206Z,24.95
2023-02-06T09:36:22.102Z,37.88
2023-02-06T09:38:53.622Z,30.52
2023-02-06T09:41:51.238Z,29.02
2023-02-06T09:44:37.474Z,30.98
2023-02-06T09:47:33.940Z,23.70
2023-02-06T09:50:07.831Z,23.35
2023-02-06T09:53:08.947Z,23.20
2023-02-06T09:55:48.900Z,19.55
2023-02-06T09:58:34.268Z,18.23
2023-02-06T10:01:01.343Z,18.63
2023-02-06T10:03:34.508Z,21.48
2023-02-06T10:06:11.820Z,22.50
2023-02-06T10:08:44.891Z,18.75
2023-02-06T10:11:20.017Z,21.15
2023-02-06T10:13:55.550Z,23.08
2023-02-06T10:16:41.009Z,20.50
2023-02-06T10:19:35.897Z,20.75
2023-02-06T10:22:10.416Z,19.48
2023-02-06T10:24:45.916Z,18.88
2023-02-06T10:27:15.154Z,19.52
2023-02-06T10:29:45.282Z,18.27
2023-02-06T10:35:01.053Z,18.02
2023-02-06T10:38:06.202Z,17.13
2023-02-06T10:40:51.520Z,19.33
2023-02-06T10:43:49.476Z,19.00
2023-02-06T10:46:38.999Z,21.40
2023-02-06T10:49:06.151Z,23.10
2023-02-06T10:51:38.198Z,14.60
2023-02-06T10:54:26.389Z,16.52
2023-02-06T10:56:57.180Z,24.60
2023-02-06T10:59:34.660Z,19.17
2023-02-06T11:02:18.024Z,16.38
2023-02-06T11:04:52.563Z,18.17
2023-02-06T11:07:27.064Z,17.30
2023-02-06T11:09:54.610Z,20.15
2023-02-06T11:12:31.344Z,18.38
2023-02-06T11:15:03.461Z,14.45
2023-02-06T11:17:31.671Z,14.48
2023-02-06T11:20:17.337Z,18.13
2023-02-06T11:22:52.739Z,18.33
2023-02-06T11:25:25.867Z,16.15
2023-02-06T11:27:53.648Z,16.05
2023-02-06T11:30:35.159Z,16.08
2023-02-06T11:33:36.722Z,12.93
2023-02-06T11:36:05.439Z,14.00
2023-02-06T11:38:33.276Z,13.93
2023-02-06T11:41:03.810Z,13.88
2023-02-06T11:43:33.845Z,13.32
2023-02-06T11:46:14.432Z,14.15
2023-02-06T11:49:01.201Z,11.75
2023-02-06T11:51:46.992Z,14.25
2023-02-06T11:54:28.181Z,17.00
2023-02-06T11:57:09.604Z,17.85
2023-02-06T11:59:49.609Z,14.63
2023-02-06T12:02:49.977Z,18.38
2023-02-06T12:05:20.154Z,21.70
2023-02-06T12:10:23.764Z,14.27
2023-02-06T12:12:58.121Z,16.88
2023-02-06T12:15:46.663Z,14.05
2023-02-06T12:18:19.053Z,14.70
2023-02-06T12:20:53.562Z,14.00
2023-02-06T12:23:34.012Z,14.70
2023-02-06T12:26:08.434Z,14.90
2023-02-06T12:28:52.826Z,19.17
2023-02-06T12:31:35.233Z,12.98
2023-02-06T12:34:11.419Z,21.85
2023-02-06T12:36:53.654Z,18.00
2023-02-06T12:39:23.569Z,19.90
2023-02-06T12:41:56.629Z,13.60
2023-02-06T12:44:28.452Z,15.85
2023-02-06T12:47:05.431Z,11.13
2023-02-06T12:49:40.099Z,15.55
2023-02-06T12:52:33.074Z,12.77
2023-02-06T12:55:11.964Z,13.85
2023-02-06T12:57:40.056Z,12.15
2023-02-06T13:00:34.492Z,17.67
2023-02-06T13:03:40.903Z,12.70
2023-02-06T13:06:27.654Z,15.02
2023-02-06T13:09:06.655Z,15.80
2023-02-06T13:11:40.845Z,14.32
2023-02-06T13:14:19.586Z,17.58
2023-02-06T13:16:54.191Z,20.45
2023-02-06T13:19:26.909Z,21.10
2023-02-06T13:22:14.539Z,19.75
2023-02-06T13:24:49.447Z,17.25
2023-02-06T13:27:36.411Z,20.63
2023-02-06T13:30:31.191Z,22.95
2023-02-06T13:33:19.258Z,23.55
2023-02-06T13:36:09.897Z,17.33
2023-02-06T13:38:39.000Z,18.20
2023-02-06T13:41:15.297Z,20.33
2023-02-06T13:43:51.742Z,20.80
2023-02-06T13:46:23.651Z,20.23
2023-02-06T13:49:15.015Z,22.45
2023-02-06T13:51:56.719Z,21.55
2023-02-06T13:54:26.853Z,25.65
2023-02-06T13:59:35.673Z,20.52
2023-02-06T14:02:14.983Z,20.55
2023-02-06T14:04:45.533Z,25.13
2023-02-06T14:08:06.168Z,23.00
2023-02-06T14:10:44.223Z,20.63
2023-02-06T14:13:26.417Z,21.55
2023-02-06T14:16:14.642Z,22.77
2023-02-06T14:18:44.399Z,21.10
2023-02-06T14:21:24.965Z,20.65
2023-02-06T14:24:23.264Z,23.00
2023-02-06T14:27:02.410Z,20.20
2023-02-06T14:29:44.747Z,21.88
2023-02-06T14:32:40.686Z,20.55
2023-02-06T14:35:25.871Z,20.08
2023-02-06T14:38:28.182Z,22.52
2023-02-06T14:40:59.523Z,25.70
2023-02-06T14:43:30.388Z,22.10
2023-02-06T14:46:10.659Z,22.33
2023-02-06T14:48:58.447Z,25.80
2023-02-06T14:51:38.301Z,24.95
2023-02-06T14:54:26.933Z,23.83
2023-02-06T14:56:59.576Z,22.77
2023-02-06T14:59:26.875Z,22.45
2023-02-06T15:01:55.892Z,20.80
2023-02-06T15:04:26.437Z,20.75
2023-02-06T15:07:02.159Z,22.73
2023-02-06T15:09:34.433Z,18.85
2023-02-06T15:12:05.099Z,22.92
2023-02-06T15:14:35.176Z,22.55
2023-02-06T15:17:03.046Z,19.80
2023-02-06T15:19:32.845Z,19.98
2023-02-06T15:22:06.948Z,18.08
2023-02-06T15:24:46.265Z,20.42
2023-02-06T15:27:30.353Z,21.77
2023-02-06T15:29:58.441Z,21.27
2023-02-06T15:32:33.227Z,20.38
2023-02-06T15:35:01.789Z,20.90
2023-02-06T15:37:32.935Z,21.33
2023-02-06T15:40:23.184Z,19.42
2023-02-06T15:45:27.727Z,22.35
2023-02-06T15:47:56.084Z,19.88
2023-02-06T15:50:27.949Z,23.52
2023-02-06T15:52:56.327Z,18.52
2023-02-06T15:55:31.572Z,19.48
2023-02-06T15:58:00.663Z,21.38
2023-02-06T16:00:31.468Z,17.45
2023-02-06T16:03:05.304Z,19.27
2023-02-06T16:05:40.867Z,20.30
2023-02-06T16:08:16.688Z,18.10
2023-02-06T16:10:50.489Z,18.55
2023-02-06T16:13:21.719Z,18.48
2023-02-06T16:16:07.500Z,19.50
2023-02-06T16:18:37.877Z,21.27
2023-02-06T16:21:29.167Z,21.20
2023-02-06T16:24:07.891Z,20.50
2023-02-06T16:26:49.427Z,24.23
2023-02-06T16:29:31.960Z,20.75
2023-02-06T16:32:14.971Z,21.33
2023-02-06T16:34:44.484Z,22.50
2023-02-06T16:37:23.738Z,21.15
2023-02-06T16:39:50.990Z,22.92
2023-02-06T16:42:21.782Z,28.17
2023-02-06T16:44:52.501Z,24.55
2023-02-06T16:47:21.448Z,21.90
2023-02-06T16:49:48.555Z,21.30
2023-02-06T16:52:29.297Z,24.05
2023-02-06T16:55:00.577Z,23.55
2023-02-06T16:57:41.925Z,28.02
2023-02-06T17:00:16.438Z,27.50
2023-02-06T17:02:43.561Z,29.27
2023-02-06T17:05:10.888Z,52.45
2023-02-06T17:07:38.443Z,49.10
2023-02-06T17:10:06.291Z,25.45
2023-02-06T17:12:34.644Z,25.00
2023-02-06T17:15:02.122Z,23.60
2023-02-06T17:17:29.342Z,26.13
2023-02-06T17:19:56.648Z,24.23
2023-02-06T17:22:24.118Z,25.55
2023-02-06T17:24:51.558Z,21.45
2023-02-06T17:27:21.739Z,26.88
2023-02-06T17:29:50.823Z,28.40
2023-02-06T17:32:22.400Z,26.85
2023-02-06T17:34:51.706Z,26.50
2023-02-06T17:37:22.161Z,27.50
2023-02-06T17:39:51.600Z,30.20
2023-02-06T17:42:19.453Z,23.80
2023-02-06T17:44:46.584Z,31.17
2023-02-06T17:47:13.763Z,26.10
2023-02-06T17:49:40.887Z,26.65
2023-02-06T17:52:07.959Z,36.53
2023-02-06T17:54:35.887Z,35.35
2023-02-06T17:57:03.433Z,37.17
2023-02-06T17:59:30.558Z,30.30
2023-02-06T18:01:57.807Z,34.10
2023-02-06T18:04:25.365Z,31.80
2023-02-06T18:06:52.505Z,31.35
2023-02-06T18:09:19.776Z,37.72
2023-02-06T18:11:47.030Z,37.95
2023-02-06T18:14:14.233Z,40.28
2023-02-06T18:16:43.130Z,38.80
2023-02-06T18:19:10.757Z,36.75
2023-02-06T18:21:39.916Z,37.08
2023-02-06T18:24:07.597Z,38.78
2023-02-06T18:26:34.830Z,42.13
2023-02-06T18:29:06.142Z,39.67
2023-02-06T18:31:35.289Z,40.92
2023-02-06T18:34:08.100Z,43.93
2023-02-06T18:36:36.297Z,43.53
2023-02-06T18:39:04.400Z,43.05
2023-02-06T18:41:49.900Z,38.35
2023-02-06T18:44:17.073Z,40.67
2023-02-06T18:46:44.292Z,42.13
2023-02-06T18:49:11.502Z,42.30
2023-02-06T18:51:38.603Z,51.20
2023-02-06T18:54:07.997Z,65.50
2023-02-06T18:56:35.501Z,75.43
2023-02-06T18:59:04.180Z,81.03
2023-02-06T19:01:32.086Z,80.18
2023-02-06T19:04:00.097Z,55.22
2023-02-06T19:06:35.560Z,51.50
2023-02-06T19:09:07.404Z,45.63
2023-02-06T19:11:36.199Z,42.03
2023-02-06T19:14:05.036Z,37.95
2023-02-06T19:16:32.995Z,43.28
2023-02-06T19:19:00.464Z,36.25
2023-02-06T19:21:28.408Z,35.83
2023-02-06T19:23:58.536Z,40.92
2023-02-06T19:28:53.891Z,41.50
2023-02-06T19:31:24.220Z,48.88
2023-02-06T19:33:56.689Z,55.65
2023-02-06T19:36:25.414Z,52.65
2023-02-06T19:38:58.826Z,57.90
2023-02-06T19:41:28.063Z,53.72
2023-02-06T19:43:57.574Z,54.95
2023-02-06T19:46:26.812Z,56.38
2023-02-06T19:48:55.162Z,57.70
2023-02-06T19:51:25.497Z,56.83
2023-02-06T19:53:54.765Z,60.35
2023-02-06T19:56:26.438Z,54.37
2023-02-06T19:59:05.950Z,84.13
2023-02-06T20:01:33.292Z,123.25
2023-02-06T20:04:02.118Z,104.78
2023-02-06T20:06:35.134Z,104.47
2023-02-06T20:09:03.681Z,96.85
2023-02-06T20:11:32.242Z,87.60
2023-02-06T20:13:59.771Z,72.30
2023-02-06T20:16:29.500Z,72.50
2023-02-06T20:18:57.250Z,68.22
2023-02-06T20:21:39.195Z,64.68
2023-02-06T20:24:10.740Z,56.15
2023-02-06T20:26:39.639Z,60.33
2023-02-06T20:29:08.393Z,54.35
2023-02-06T20:31:36.384Z,58.35
2023-02-06T20:34:04.028Z,54.60
2023-02-06T20:36:31.254Z,56.20
2023-02-06T20:39:00.247Z,53.67
2023-02-06T20:41:31.394Z,60.92
2023-02-06T20:44:00.142Z,54.97
2023-02-06T20:46:29.961Z,59.95
2023-02-06T20:48:59.714Z,55.40
2023-02-06T20:51:27.680Z,55.33
2023-02-06T20:53:54.978Z,55.20
2023-02-06T20:56:23.107Z,57.75
2023-02-06T20:58:51.418Z,52.97
2023-02-06T21:01:23.862Z,50.97
2023-02-06T21:03:54.458Z,60.05
2023-02-06T21:06:22.226Z,53.65
2023-02-06T21:08:50.510Z,55.72
2023-02-06T21:11:18.182Z,51.83
2023-02-06T21:13:45.388Z,57.75
2023-02-06T21:16:13.653Z,53.40
2023-02-06T21:18:42.806Z,54.97
2023-02-06T21:21:14.400Z,57.80
2023-02-06T21:23:43.850Z,59.63
2023-02-06T21:26:13.032Z,63.55
2023-02-06T21:28:41.190Z,60.40
2023-02-06T21:31:13.137Z,64.30
2023-02-06T21:33:40.319Z,63.50
2023-02-06T21:36:07.936Z,66.78
2023-02-06T21:38:39.355Z,64.63
2023-02-06T21:41:11.876Z,59.15
2023-02-06T21:43:40.574Z,63.03
2023-02-06T21:46:10.026Z,60.67
2023-02-06T21:48:37.508Z,55.80
2023-02-06T21:51:15.781Z,70.10
2023-02-06T21:53:44.687Z,68.32
2023-02-06T21:56:15.839Z,78.80
2023-02-06T21:58:42.958Z,80.28
2023-02-06T22:01:18.683Z,76.78
2023-02-06T22:03:47.273Z,85.15
2023-02-06T22:06:15.192Z,77.00
2023-02-06T22:08:44.698Z,86.70
2023-02-06T22:11:30.644Z,80.65
2023-02-06T22:14:00.003Z,74.00
2023-02-06T22:16:28.110Z,81.50
2023-02-06T22:18:56.682Z,81.60
2023-02-06T22:21:26.691Z,91.80
2023-02-06T22:23:57.795Z,83.40
2023-02-06T22:26:25.650Z,90.18
2023-02-06T22:28:52.772Z,90.00
2023-02-06T22:31:25.060Z,88.22
2023-02-06T22:33:53.219Z,90.30
2023-02-06T22:36:26.137Z,91.40
2023-02-06T22:38:59.695Z,91.55
2023-02-06T22:41:27.836Z,87.65
2023-02-06T22:43:54.989Z,88.22
2023-02-06T22:46:32.306Z,91.40
2023-02-06T22:49:00.098Z,88.57
2023-02-06T22:51:28.031Z,91.10
2023-02-06T22:53:55.584Z,88.90
2023-02-06T22:56:28.138Z,90.57
2023-02-06T22:59:02.415Z,93.95
2023-02-06T23:01:36.244Z,92.30
2023-02-06T23:04:05.249Z,87.13
2023-02-06T23:06:33.830Z,85.13
2023-02-06T23:09:02.756Z,87.18
2023-02-06T23:11:31.905Z,77.93
2023-02-06T23:14:01.728Z,101.07
2023-02-06T23:16:30.315Z,96.72
2023-02-06T23:18:57.548Z,78.53
2023-02-06T23:21:26.006Z,81.95
2023-02-06T23:23:55.290Z,79.75
2023-02-06T23:26:22.691Z,81.80
2023-02-06T23:28:50.047Z,80.38
2023-02-06T23:31:17.612Z,80.68
2023-02-06T23:33:44.807Z,73.28
2023-02-06T23:36:16.058Z,66.22
2023-02-06T23:38:44.205Z,66.53
2023-02-06T23:41:19.995Z,72.28
2023-02-06T23:43:58.464Z,93.57
2023-02-06T23:46:26.798Z,91.55
2023-02-06T23:48:54.841Z,106.20
2023-02-06T23:51:22.818Z,82.90
2023-02-06T23:53:50.430Z,64.32
2023-02-06T23:56:28.035Z,59.10
2023-02-06T23:58:57.131Z,60.33
